Terminal Aerodrome Forecast
Issued by NWS

Home | Current Version | Previous Version | Text Only | Print | Product List | Glossary On
Versions: 1 2 3 4 5 6 7 8 9 10 11 12 13 14 15 16 17
240
FTUS43 KDTX 272323
TAFMBS
TAF
KMBS 272323Z 2800/2824 27009KT P6SM SCT060 SCT100
     FM280100 22006KT P6SM SKC
     FM281300 23010KT P6SM SCT200
     FM281600 20014G22KT P6SM SCT090 OVC150=

USA.gov is the U.S. government's official web portal to all federal, state and local government web resources and services.